Cherryfield, ME (04622)

1:44 PM EST on December 09, 2016 (GMT -0500)
Ed Greaves Education (EdGE) Center | | Change Station

Elev 65 ft 44.59 °N, 67.93 °W | Updated 16 seconds ago

Mostly Cloudy
Mostly Cloudy
29.0 °F
Feels Like 29 °F
N
1.0
Wind Variable Wind from WNW
Gusts 20.0 mph

Today
High -- | Low -- °F
--% Chance of Precip.
Yesterday
High -- | Low -- °F
Precip. -- in
Pressure 29.80 in
Visibility 10.0 miles
Clouds Overcast 4700 ft
Windchill 29 °F
Dew Point 15 °F
Humidity 56%
Rainfall 0.00 in
Snow Depth Not available.
6:57 AM 3:51 PM
Waxing Gibbous, 76% visible
METAR KBHB 091756Z AUTO 33014G19KT 10SM OVC047 M01/M10 A2979 RMK AO2 SNE26 SLP091 P0000 60000 T10111100 11006 21022 57002 FZRANO
Pressure 29.80 in
Visibility 10.0 miles
Clouds Overcast 4700 ft
Windchill 29 °F
Dew Point 15 °F
Humidity 56%
Rainfall 0.00 in
Snow Depth Not available.
6:57 AM 3:51 PM
Waxing Gibbous, 76% visible
METAR KBHB 091756Z AUTO 33014G19KT 10SM OVC047 M01/M10 A2979 RMK AO2 SNE26 SLP091 P0000 60000 T10111100 11006 21022 57002 FZRANO

10-Day Weather Forecast

Almanac

Astronomy

Dec. 09, 2016 Rise Set
Actual Time
Civil Twilight
Nautical Twilight
Astronomical Twilight
Moon
Length of Visible Light
Length of Day
Tomorrow will be .
, % of the Moon is Illuminated

Today's Extremes

State Highs State Lows

Community

WunderPhotos

Upload Photos

1,956,499 photos uploaded!

WunderBlog® & News

Nearby

Air Quality

  Air Quality AQ Index Pollutant
Not available.

Snow Depth

Station Depth Elevation

Earthquake Activity

City Distance Mag. Time & Date
Minimum magnitude displayed is 2.5.

Coastal Water Temperatures

Place Temperature

Stations

Nearby Weather Stations

Station Location Temp. Windchill Dew Point Humidity Wind Precip. Elev Updated Type
                   

Watches & Warnings

There are currently no watches in effect.